createdAt,value
2018-07-27T00:00:04.966Z,9.68
2018-07-27T00:02:33.579Z,16.10
2018-07-27T00:05:02.125Z,9.27
2018-07-27T00:07:30.690Z,12.20
2018-07-27T00:09:59.429Z,9.80
2018-07-27T00:12:28.014Z,16.07
2018-07-27T00:14:56.555Z,14.53
2018-07-27T00:17:25.117Z,12.87
2018-07-27T00:19:53.627Z,11.60
2018-07-27T00:22:22.670Z,14.37
2018-07-27T00:24:51.229Z,12.00
2018-07-27T00:27:19.836Z,11.03
2018-07-27T00:29:49.167Z,16.20
2018-07-27T00:32:17.728Z,11.20
2018-07-27T00:34:46.292Z,21.03
2018-07-27T00:55:39.506Z,13.32
2018-07-27T00:58:08.059Z,12.73
2018-07-27T01:00:36.597Z,12.40
2018-07-27T01:03:05.220Z,12.63
2018-07-27T01:05:33.756Z,11.93
2018-07-27T01:08:02.339Z,12.50
2018-07-27T01:10:30.959Z,14.93
2018-07-27T01:12:59.501Z,15.10
2018-07-27T01:15:28.114Z,13.80
2018-07-27T01:17:57.109Z,15.03
2018-07-27T01:20:25.694Z,13.63
2018-07-27T01:22:55.118Z,18.50
2018-07-27T01:25:23.717Z,13.57
2018-07-27T01:27:52.269Z,16.33
2018-07-27T01:30:21.553Z,16.35
2018-07-27T01:32:50.138Z,13.70
2018-07-27T01:35:18.806Z,12.80
2018-07-27T01:37:47.389Z,14.30
2018-07-27T01:40:18.105Z,13.90
2018-07-27T01:42:46.759Z,16.03
2018-07-27T01:51:25.361Z,13.30
2018-07-27T01:53:53.903Z,16.07
2018-07-27T01:56:22.487Z,21.48
2018-07-27T01:58:51.432Z,17.83
2018-07-27T02:01:20.039Z,15.98
2018-07-27T02:03:48.592Z,15.33
2018-07-27T02:06:17.454Z,17.10
2018-07-27T02:08:46.043Z,15.90
2018-07-27T02:31:45.306Z,15.60
2018-07-27T02:34:16.128Z,17.15
2018-07-27T02:36:44.822Z,16.40
2018-07-27T02:39:14.018Z,16.87
2018-07-27T02:41:42.575Z,16.23
2018-07-27T02:44:11.123Z,16.20
2018-07-27T02:46:39.741Z,15.97
2018-07-27T02:49:08.814Z,16.87
2018-07-27T02:51:37.486Z,16.87
2018-07-27T02:54:06.154Z,19.73
2018-07-27T02:56:34.686Z,17.60
2018-07-27T02:59:03.243Z,19.93
2018-07-27T03:01:31.802Z,18.37
2018-07-27T03:04:00.413Z,19.73
2018-07-27T03:06:28.936Z,22.30
2018-07-27T03:08:57.507Z,22.82
2018-07-27T03:11:26.059Z,22.52
2018-07-27T03:13:54.586Z,18.23
2018-07-27T03:16:23.556Z,18.60
2018-07-27T03:18:52.125Z,18.67
2018-07-27T03:21:20.702Z,18.62
2018-07-27T03:23:49.474Z,18.73
2018-07-27T03:26:18.038Z,20.13
2018-07-27T03:28:46.275Z,19.37
2018-07-27T03:42:18.526Z,19.50
2018-07-27T03:44:47.420Z,19.73
2018-07-27T03:47:17.419Z,20.15
2018-07-27T03:49:45.967Z,21.83
2018-07-27T03:52:15.665Z,27.75
2018-07-27T03:54:44.224Z,22.23
2018-07-27T03:57:12.874Z,18.83
2018-07-27T03:59:41.491Z,20.55
2018-07-27T04:02:10.036Z,21.40
2018-07-27T04:04:38.935Z,25.43
2018-07-27T04:07:07.550Z,20.70
2018-07-27T04:09:36.130Z,18.57
2018-07-27T04:12:04.811Z,26.03
2018-07-27T04:14:33.430Z,28.17
2018-07-27T04:17:02.656Z,20.77
2018-07-27T04:19:31.221Z,23.63
2018-07-27T04:21:59.791Z,33.70
2018-07-27T04:24:29.214Z,23.13
2018-07-27T04:26:57.804Z,20.57
2018-07-27T04:29:27.550Z,20.47
2018-07-27T04:31:56.070Z,19.73
2018-07-27T04:34:24.629Z,22.97
2018-07-27T04:36:53.170Z,19.60
2018-07-27T04:39:21.681Z,21.10
2018-07-27T04:41:50.345Z,21.87
2018-07-27T04:44:18.846Z,20.90
2018-07-27T04:46:47.590Z,18.73
2018-07-27T04:49:17.808Z,23.05
2018-07-27T04:51:46.359Z,20.90
2018-07-27T05:02:59.984Z,24.10
2018-07-27T05:05:29.044Z,25.10
2018-07-27T05:07:57.533Z,22.80
2018-07-27T05:10:58.716Z,34.43
2018-07-27T05:13:27.226Z,24.23
2018-07-27T05:15:55.766Z,20.70
2018-07-27T05:18:24.314Z,21.87
2018-07-27T05:20:52.864Z,19.40
2018-07-27T05:23:21.394Z,18.70
2018-07-27T05:25:49.612Z,20.53
2018-07-27T05:28:18.195Z,22.10
2018-07-27T05:30:46.868Z,18.60
2018-07-27T05:42:57.247Z,20.65
2018-07-27T05:45:25.948Z,18.17
2018-07-27T05:47:55.307Z,18.87
2018-07-27T05:50:24.226Z,19.30
2018-07-27T05:52:52.948Z,19.03
2018-07-27T05:55:22.131Z,16.80
2018-07-27T05:57:50.759Z,15.37
2018-07-27T06:00:19.344Z,15.10
2018-07-27T06:02:47.978Z,15.17
2018-07-27T06:05:18.074Z,13.33
2018-07-27T06:07:46.683Z,11.30
2018-07-27T06:28:19.480Z,9.55
2018-07-27T06:30:47.917Z,10.53
2018-07-27T06:33:17.180Z,11.12
2018-07-27T06:35:45.712Z,21.17
2018-07-27T06:48:46.076Z,9.55
2018-07-27T06:58:53.522Z,9.17
2018-07-27T07:01:22.021Z,9.12
2018-07-27T07:03:50.477Z,9.80
2018-07-27T07:06:19.372Z,16.37
2018-07-27T07:08:47.833Z,9.30
2018-07-27T07:11:17.349Z,10.23
2018-07-27T07:13:45.877Z,10.70
2018-07-27T07:24:12.937Z,9.28
2018-07-27T07:26:42.214Z,10.58
2018-07-27T07:29:10.708Z,10.47
2018-07-27T07:31:39.211Z,11.53
2018-07-27T07:34:07.709Z,11.23
2018-07-27T07:36:36.217Z,12.00
2018-07-27T07:39:08.141Z,9.57
2018-07-27T07:41:36.681Z,10.43
2018-07-27T07:44:05.502Z,9.63
2018-07-27T07:46:35.451Z,9.30
2018-07-27T07:49:05.130Z,9.30
2018-07-27T07:51:35.424Z,10.15
2018-07-27T07:54:04.421Z,9.17
2018-07-27T07:56:33.637Z,7.93
2018-07-27T07:59:02.738Z,10.00
2018-07-27T08:01:31.447Z,5.92
2018-07-27T08:03:59.641Z,5.80
2018-07-27T08:06:28.379Z,5.97
2018-07-27T08:08:57.076Z,10.57
2018-07-27T08:11:27.107Z,5.22
2018-07-27T08:13:56.182Z,9.43
2018-07-27T08:16:24.822Z,8.55
2018-07-27T08:18:53.313Z,5.23
2018-07-27T08:21:24.136Z,4.28
2018-07-27T08:23:52.889Z,5.17
2018-07-27T08:26:47.238Z,4.60
2018-07-27T08:41:30.651Z,4.77
2018-07-27T08:43:59.122Z,5.53
2018-07-27T08:46:27.624Z,4.30
2018-07-27T08:48:57.529Z,5.00
2018-07-27T08:51:26.502Z,6.53
2018-07-27T08:53:55.961Z,5.20
2018-07-27T08:56:24.579Z,4.53
2018-07-27T08:58:53.874Z,5.37
2018-07-27T09:01:22.434Z,5.72
2018-07-27T09:03:51.224Z,5.80
2018-07-27T09:06:19.901Z,5.90
2018-07-27T09:08:48.557Z,5.42
2018-07-27T09:11:17.575Z,4.80
2018-07-27T09:13:46.075Z,15.03
2018-07-27T09:22:27.542Z,5.90
2018-07-27T09:24:56.268Z,4.70
2018-07-27T09:27:24.549Z,6.00
2018-07-27T09:29:55.294Z,4.33
2018-07-27T09:32:23.785Z,5.13
2018-07-27T09:34:52.691Z,4.37
2018-07-27T09:37:21.212Z,3.72
2018-07-27T09:39:49.767Z,4.70
2018-07-27T09:42:18.242Z,3.60
2018-07-27T09:44:48.234Z,4.57
2018-07-27T09:47:18.623Z,3.70
2018-07-27T09:49:47.178Z,4.10
2018-07-27T09:52:17.600Z,3.40
2018-07-27T09:54:46.251Z,4.20
2018-07-27T10:16:46.943Z,3.85
2018-07-27T10:21:52.413Z,5.40
2018-07-27T10:24:20.929Z,4.50
2018-07-27T10:26:49.449Z,6.83
2018-07-27T10:29:17.996Z,5.10
2018-07-27T10:31:46.145Z,4.97
2018-07-27T10:50:27.147Z,7.30
2018-07-27T10:52:55.947Z,6.57
2018-07-27T10:55:24.134Z,5.75
2018-07-27T10:57:52.734Z,6.12
2018-07-27T11:00:21.354Z,5.58
2018-07-27T11:02:49.872Z,6.33
2018-07-27T11:05:18.481Z,6.37
2018-07-27T11:07:47.040Z,6.40
2018-07-27T11:29:47.153Z,7.47
2018-07-27T11:34:53.207Z,6.70
2018-07-27T11:37:22.565Z,6.77
2018-07-27T11:39:51.082Z,7.60
2018-07-27T11:42:19.657Z,6.30
2018-07-27T11:44:49.238Z,7.23
2018-07-27T11:47:17.738Z,9.77
2018-07-27T11:49:46.872Z,7.80
2018-07-27T11:58:27.302Z,6.30
2018-07-27T12:00:56.249Z,7.20
2018-07-27T12:03:24.731Z,6.10
2018-07-27T12:05:54.634Z,5.80
2018-07-27T12:08:24.269Z,12.30
2018-07-27T12:10:52.735Z,5.40
2018-07-27T12:13:21.346Z,6.80
2018-07-27T12:15:50.488Z,5.57
2018-07-27T12:18:18.963Z,5.40
2018-07-27T12:20:47.631Z,5.53
2018-07-27T12:31:48.763Z,4.95
2018-07-27T12:34:18.078Z,5.80
2018-07-27T12:36:46.582Z,9.83
2018-07-27T12:46:51.473Z,5.20
2018-07-27T12:49:20.053Z,4.80
2018-07-27T12:51:48.285Z,4.10
2018-07-27T12:54:16.878Z,3.90
2018-07-27T12:56:45.485Z,3.75
2018-07-27T13:07:01.100Z,4.53
2018-07-27T13:09:31.407Z,12.88
2018-07-27T13:11:59.970Z,4.20
2018-07-27T13:14:28.512Z,4.00
2018-07-27T13:16:57.063Z,6.20
2018-07-27T13:19:25.563Z,12.90
2018-07-27T13:21:54.184Z,9.10
2018-07-27T13:26:50.937Z,6.80
2018-07-27T13:29:19.919Z,4.30
2018-07-27T13:32:04.836Z,3.72
2018-07-27T13:34:41.031Z,4.50
2018-07-27T13:37:11.204Z,4.43
2018-07-27T13:39:41.115Z,3.70
2018-07-27T13:42:17.351Z,4.70
2018-07-27T13:44:46.349Z,3.70
2018-07-27T13:56:56.704Z,4.78
2018-07-27T13:59:25.648Z,3.55
2018-07-27T14:01:54.158Z,3.90
2018-07-27T14:04:23.240Z,3.70
2018-07-27T14:07:00.944Z,3.70
2018-07-27T14:09:29.733Z,7.70
2018-07-27T14:11:59.149Z,10.60
2018-07-27T14:14:27.807Z,5.70
2018-07-27T14:16:56.802Z,6.53
2018-07-27T14:19:26.024Z,4.10
2018-07-27T14:21:54.691Z,6.20
2018-07-27T14:24:23.313Z,7.23
2018-07-27T14:26:52.885Z,6.30
2018-07-27T14:29:23.377Z,4.40
2018-07-27T14:31:52.012Z,4.77
2018-07-27T14:34:20.858Z,6.08
2018-07-27T14:36:49.605Z,5.63
2018-07-27T14:39:18.276Z,4.03
2018-07-27T14:41:48.066Z,4.70
2018-07-27T14:44:17.412Z,4.93
2018-07-27T14:46:47.335Z,6.77
2018-07-27T14:49:18.419Z,3.80
2018-07-27T14:51:47.007Z,4.80
2018-07-27T15:02:53.682Z,4.05
2018-07-27T15:05:22.389Z,4.73
2018-07-27T15:07:51.069Z,4.10
2018-07-27T15:10:21.025Z,3.98
2018-07-27T15:12:50.300Z,5.57
2018-07-27T15:15:18.586Z,7.33
2018-07-27T15:17:47.964Z,4.97
2018-07-27T15:28:07.369Z,4.20
2018-07-27T15:30:36.207Z,5.57
2018-07-27T15:33:04.437Z,4.93
2018-07-27T15:35:33.089Z,6.45
2018-07-27T15:38:01.880Z,4.57
2018-07-27T15:40:30.462Z,6.08
2018-07-27T15:42:59.132Z,4.50
2018-07-27T15:45:27.728Z,6.60
2018-07-27T15:47:56.359Z,3.40
2018-07-27T15:50:25.259Z,5.90
2018-07-27T15:52:53.774Z,4.33
2018-07-27T15:55:22.306Z,18.97
2018-07-27T15:57:50.901Z,4.83
2018-07-27T16:00:19.422Z,8.83
2018-07-27T16:02:48.210Z,4.17
2018-07-27T16:05:18.773Z,4.83
2018-07-27T16:07:47.352Z,5.37
2018-07-27T16:28:05.518Z,4.30
2018-07-27T16:30:34.030Z,7.22
2018-07-27T16:33:02.575Z,4.60
2018-07-27T16:35:31.179Z,4.73
2018-07-27T16:37:59.645Z,4.33
2018-07-27T16:40:28.238Z,4.87
2018-07-27T16:42:56.830Z,5.40
2018-07-27T16:45:25.654Z,6.33
2018-07-27T16:47:54.152Z,4.70
2018-07-27T16:50:23.373Z,4.70
2018-07-27T16:52:52.039Z,5.10
2018-07-27T16:55:20.208Z,4.42
2018-07-27T16:57:48.718Z,4.27
2018-07-27T17:00:17.619Z,5.50
2018-07-27T17:02:46.149Z,4.87
2018-07-27T17:23:53.327Z,5.85
2018-07-27T17:26:22.072Z,5.03
2018-07-27T17:28:50.659Z,6.17
2018-07-27T17:31:19.717Z,6.57
2018-07-27T17:33:48.401Z,5.20
2018-07-27T17:36:17.377Z,7.37
2018-07-27T17:38:45.925Z,5.67
2018-07-27T17:58:48.709Z,5.45
2018-07-27T18:01:17.466Z,8.10
2018-07-27T18:03:45.947Z,9.20
2018-07-27T18:14:14.058Z,5.90
2018-07-27T18:16:42.603Z,8.60
2018-07-27T18:19:11.625Z,9.63
2018-07-27T18:21:40.195Z,7.50
2018-07-27T18:24:08.744Z,7.07
2018-07-27T18:26:38.126Z,7.53
2018-07-27T18:29:06.958Z,11.80
2018-07-27T18:31:35.482Z,15.90
2018-07-27T18:34:03.772Z,7.77
2018-07-27T18:36:32.906Z,13.03
2018-07-27T18:39:01.429Z,6.67
2018-07-27T18:41:29.926Z,7.47
2018-07-27T18:43:58.551Z,12.58
2018-07-27T18:46:27.102Z,9.70
2018-07-27T18:48:55.675Z,7.70
2018-07-27T18:51:24.350Z,8.85
2018-07-27T18:53:53.055Z,13.40
2018-07-27T18:56:21.592Z,9.98
2018-07-27T18:58:50.670Z,11.60
2018-07-27T19:01:19.190Z,22.87
2018-07-27T19:03:47.729Z,18.43
2018-07-27T19:14:38.876Z,17.50
2018-07-27T19:17:07.427Z,15.70
2018-07-27T19:19:36.080Z,14.93
2018-07-27T19:22:04.755Z,13.97
2018-07-27T19:24:33.477Z,19.53
2018-07-27T19:41:28.206Z,14.15
2018-07-27T19:43:58.219Z,12.03
2018-07-27T19:46:27.128Z,14.30
2018-07-27T19:48:56.173Z,54.63
2018-07-27T19:51:24.802Z,18.67
2018-07-27T19:53:53.552Z,24.13
2018-07-27T19:56:23.476Z,18.00
2018-07-27T19:58:52.454Z,18.27
2018-07-27T20:01:21.124Z,21.15
2018-07-27T20:03:50.760Z,16.97
2018-07-27T20:06:19.374Z,25.30
2018-07-27T20:08:48.171Z,19.57
2018-07-27T20:11:17.496Z,25.43
2018-07-27T20:13:51.744Z,22.00
2018-07-27T20:16:20.350Z,16.27
2018-07-27T20:18:48.872Z,16.03
2018-07-27T20:21:17.425Z,15.40
2018-07-27T20:23:46.076Z,19.27
2018-07-27T20:31:50.051Z,14.53
2018-07-27T20:34:18.783Z,22.80
2018-07-27T20:36:47.031Z,16.83
2018-07-27T20:47:27.461Z,18.85
2018-07-27T20:49:56.405Z,12.20
2018-07-27T20:52:25.316Z,14.77
2018-07-27T20:54:54.014Z,14.90
2018-07-27T20:57:22.654Z,16.90
2018-07-27T20:59:51.214Z,15.60
2018-07-27T21:02:20.663Z,21.67
2018-07-27T21:04:49.196Z,13.50
2018-07-27T21:07:17.737Z,11.90
2018-07-27T21:09:46.432Z,11.73
2018-07-27T21:12:17.900Z,12.28
2018-07-27T21:14:46.212Z,13.37
2018-07-27T21:27:47.686Z,13.00
2018-07-27T21:30:17.771Z,12.68
2018-07-27T21:32:46.311Z,11.90
2018-07-27T21:43:03.024Z,12.37
2018-07-27T21:45:31.726Z,15.40
2018-07-27T21:48:00.322Z,13.43
2018-07-27T21:50:28.985Z,14.10
2018-07-27T21:52:57.546Z,12.77
2018-07-27T21:55:26.053Z,14.60
2018-07-27T21:57:54.686Z,12.80
2018-07-27T22:00:23.177Z,16.93
2018-07-27T22:02:51.757Z,13.23
2018-07-27T22:05:20.297Z,16.67
2018-07-27T22:07:53.090Z,17.90
2018-07-27T22:10:21.650Z,13.13
2018-07-27T22:12:50.170Z,13.93
2018-07-27T22:15:24.441Z,19.70
2018-07-27T22:17:53.065Z,13.63
2018-07-27T22:20:23.008Z,16.57
2018-07-27T22:22:51.845Z,13.83
2018-07-27T22:25:20.418Z,17.93
2018-07-27T22:27:49.284Z,14.20
2018-07-27T22:30:17.884Z,14.03
2018-07-27T22:32:46.419Z,18.40
2018-07-27T22:43:32.592Z,13.53
2018-07-27T22:46:01.224Z,16.00
2018-07-27T22:48:30.957Z,20.75
2018-07-27T22:50:59.879Z,16.70
2018-07-27T22:53:28.435Z,17.13
2018-07-27T22:55:57.069Z,15.87
2018-07-27T22:58:25.645Z,22.00
2018-07-27T23:00:54.138Z,27.90
2018-07-27T23:03:22.673Z,20.70
2018-07-27T23:05:51.609Z,29.50
2018-07-27T23:08:20.132Z,19.07
2018-07-27T23:10:48.667Z,20.00
2018-07-27T23:13:17.568Z,21.23
2018-07-27T23:15:46.145Z,21.10
2018-07-27T23:28:48.580Z,17.35
2018-07-27T23:31:17.395Z,22.30
2018-07-27T23:33:47.665Z,23.90
2018-07-27T23:36:17.511Z,21.60
2018-07-27T23:38:46.043Z,32.73
2018-07-27T23:41:15.718Z,19.55
2018-07-27T23:43:44.361Z,22.60
2018-07-27T23:46:12.958Z,23.10
2018-07-27T23:48:41.551Z,17.90
2018-07-27T23:51:11.140Z,21.77
2018-07-27T23:53:39.646Z,21.13
2018-07-27T23:56:08.728Z,24.50
2018-07-27T23:58:37.306Z,22.00
